Abbotsford Airport
CYXX : rendu visible

Aérodrome :











RETROUVEZ-NOUS SUR...

 
LOGIN :

S'inscrire | Disclaimer

   EN    FR    IT 

 









Légende :    VFR   VFR Marginal   IFR   IFR Intensif   IFR Très Intensif
Visi : 
Plafond : 
>= 8 km
>= 3000ft
5 à 8 km
1000 à 3000 ft
1500m à 5 km
500 à 1000 ft
800 à 1500m
200 à 500 ft
< 800m
< 200 ft
Symboles :   Orages  Brouillard  Fortes neiges  Fortes précipitations  Vent > 20 kt






- Altitude de l'aérodrome : 195 ft
- Code IATA : YXX


CYXX - Abbotsford

DERNIER METAR :
  • 030100Z VRB02KT 10SM FEW018 BKN038 BKN057 OVC065 12/09 A3022 RMK SF2SC3SC2SC1 SLP237

METARs EXPIRÉS :
  • 030000Z 34005KT 10SM BKN018 OVC042 11/09 A3023 RMK SF6SC2 SLP239
  • 022322Z 35006KT 10SM SCT015 BKN025 OVC040 11/09 A3023 RMK SF3SC3SC2 SLP240
  • 022300Z 35005KT 300V360 6SM -RA SCT015 BKN022 OVC035 11/09 A3023 RMK SF3SC3SC2 SLP238

TAF AMD TAF CYXX
Valide du 03 à 00h jusqu'au 04 à 00h UTC


030005Z 0300/0324 VRB03KT P6SM SCT015 BKN040
TEMPO 0300/0317 5SM -DZ BR BKN015 OVC040
PROB30 0309/0316 1SM -DZ BR BKN004
FM031700 23008KT P6SM SCT030
TEMPO 0317/0324 BKN030 RMK NXT FCST BY 030600Z
FIR CZVR / Amérique du Nord



MET'MAP, la Météo Aéronautique d'un coup d'oeil ! - Copyright ORBIFLY Décembre 2007 - Disclaimer

ORBIFLY MET'MAP TEAM :

Programmation & Développement : Alexandra Zaïnal
Sur une idée originale de : Baudouin d'Aumeries
Assistance à la programmation : Marc-Olivier Méhu
Soutien technique & logistique : Manuel Goepfert

Contact : metmap@orbifly.com




SOURCES & CREDITS :

   NOAA       Earth
Advisory